Ohyamamaru — JG5507 — position and weather

sailwx.info

Track history (hours):
 
Tides and Currents Weather Stations Pressure Air Temp Water Temp Dewpoint Dewpoint Depression Visibility Wind Speed Wind Dir Waves Ship Positions

Ohyamamaru

Last reported at 2015-Apr-19 13:33 UTC. Time now 2015-Apr-19 14:08 UTC.
Position N 35°38' E 139°45'.

Length 36 m; draft 4.4 m.

Type: Tug. MMSI: 431001114.

Date/timePositionNaut miles runAvg speedWind from/ knotsBaromVisibWave heightAir tempDewpointWater temp
2015-Apr-19 13:33N 35°38' E 139°45'0 0.0
2015-Apr-19 12:33N 35°38' E 139°45'0 0.0
2015-Apr-19 11:33N 35°38' E 139°45'0 0.0
2015-Apr-19 10:33N 35°38' E 139°45'0 0.0
2015-Apr-19 09:33N 35°38' E 139°45'0 0.0
2015-Apr-19 08:32N 35°38' E 139°45'0 0.0
2015-Apr-19 07:33N 35°38' E 139°45'0 0.0
2015-Apr-19 06:33N 35°38' E 139°45'0 0.0
2015-Apr-19 05:31N 35°38' E 139°45'0 0.0
2015-Apr-19 04:33N 35°38' E 139°45'0 0.0
2015-Apr-19 03:33N 35°38' E 139°45'0 0.0
2015-Apr-19 02:33N 35°38' E 139°45'0 0.0
2015-Apr-19 01:33N 35°38' E 139°45'0 0.0
2015-Apr-19 00:33N 35°38' E 139°45'0 0.0
2015-Apr-18 23:33N 35°38' E 139°45'0 0.0
2015-Apr-18 22:33N 35°38' E 139°45'0 0.0
2015-Apr-18 21:33N 35°38' E 139°45'0 0.0
2015-Apr-18 20:33N 35°38' E 139°45'0 0.0
2015-Apr-18 19:33N 35°38' E 139°45'0 0.0
2015-Apr-18 18:33N 35°38' E 139°45'0 0.0
2015-Apr-18 17:33N 35°38' E 139°45'0 0.0
2015-Apr-18 16:33N 35°38' E 139°45'0 0.0
2015-Apr-18 15:33N 35°38' E 139°45'0 0.0
2015-Apr-18 14:33N 35°38' E 139°45'0 0.0
2015-Apr-18 13:33N 35°38' E 139°45'0 0.0
2015-Apr-18 12:33N 35°38' E 139°45'0 0.0
2015-Apr-18 11:33N 35°38' E 139°45'0 0.0
2015-Apr-18 10:33N 35°38' E 139°45'0 0.0
2015-Apr-18 09:32N 35°38' E 139°45'0 0.0
2015-Apr-18 08:33N 35°38' E 139°45'0 0.0
2015-Apr-18 07:33N 35°38' E 139°45'0 0.0
2015-Apr-18 06:33N 35°38' E 139°45'0 0.0
2015-Apr-18 05:33N 35°38' E 139°45'0 0.0
2015-Apr-18 04:33N 35°38' E 139°45'0 0.0
2015-Apr-18 03:33N 35°38' E 139°45'0 0.0
2015-Apr-18 02:33N 35°38' E 139°45'0 0.0
2015-Apr-18 01:33N 35°38' E 139°45'0 0.0
2015-Apr-18 00:33N 35°38' E 139°45'0 0.0
2015-Apr-17 23:33N 35°38' E 139°45'0 0.0
2015-Apr-17 22:33N 35°38' E 139°45'0 0.0
2015-Apr-17 21:33N 35°38' E 139°45'0 0.0
2015-Apr-17 20:33N 35°38' E 139°45'2 1.9
2015-Apr-17 19:33N 35°36' E 139°46'2 1.9
2015-Apr-17 18:33N 35°38' E 139°45'0 0.0
2015-Apr-17 17:33N 35°38' E 139°45'0 0.0
2015-Apr-17 16:33N 35°38' E 139°45'0 0.0
2015-Apr-17 15:33N 35°38' E 139°45'0 0.0
2015-Apr-17 14:33N 35°38' E 139°45'0 0.0
2015-Apr-17 13:33N 35°38' E 139°45'0 0.0
2015-Apr-17 12:33N 35°38' E 139°45'0 0.0
2015-Apr-17 11:33N 35°38' E 139°45'0 0.0
2015-Apr-17 10:33N 35°38' E 139°45'2 2.2
2015-Apr-17 09:34N 35°36' E 139°47'2 2.2
2015-Apr-17 08:33N 35°38' E 139°46'0 0.0
2015-Apr-17 07:32N 35°38' E 139°46'0 0.0
2015-Apr-17 06:33N 35°38' E 139°46'0 0.0
2015-Apr-17 05:33N 35°38' E 139°46'0 0.0
2015-Apr-17 04:32N 35°38' E 139°46'7 6.7
2015-Apr-17 03:33N 35°32' E 139°48'3 3.1
2015-Apr-17 02:33N 35°35' E 139°48'4 3.6
2015-Apr-17 01:33N 35°38' E 139°46'0 0.0
2015-Apr-17 00:30N 35°38' E 139°46'0 0.0
2015-Apr-16 23:32N 35°38' E 139°46'0 0.0
2015-Apr-16 22:33N 35°38' E 139°46'0 0.0
2015-Apr-16 21:33N 35°38' E 139°46'0 0.0
2015-Apr-16 20:33N 35°38' E 139°46'0 0.0
2015-Apr-16 19:33N 35°38' E 139°46'0 0.0
2015-Apr-16 18:33N 35°38' E 139°46'0 0.0
2015-Apr-16 17:33N 35°38' E 139°46'0 0.0
2015-Apr-16 16:33N 35°38' E 139°46'0 0.0
2015-Apr-16 15:33N 35°38' E 139°46'0 0.0
2015-Apr-16 14:33N 35°38' E 139°46'0 0.0
2015-Apr-16 13:33N 35°38' E 139°46'0 0.0
2015-Apr-16 12:32N 35°38' E 139°46'0 0.0
2015-Apr-16 11:33N 35°38' E 139°46'0 0.0
2015-Apr-16 10:33N 35°38' E 139°46'0 0.0
2015-Apr-16 09:32N 35°38' E 139°46'0 0.0
2015-Apr-16 08:33N 35°38' E 139°46'0 0.0
2015-Apr-16 07:33N 35°38' E 139°46'0 0.0
2015-Apr-16 06:33N 35°38' E 139°46'0 0.0
2015-Apr-16 05:33N 35°38' E 139°46'0 0.0
2015-Apr-16 04:33N 35°38' E 139°46'0 0.0
2015-Apr-16 03:33N 35°38' E 139°46'0 0.0
2015-Apr-16 02:33N 35°38' E 139°46'0 0.0
2015-Apr-16 01:33N 35°38' E 139°46'0 0.0
2015-Apr-16 00:33N 35°38' E 139°46'0 0.0
2015-Apr-15 23:33N 35°38' E 139°46'0 0.0
2015-Apr-15 22:33N 35°38' E 139°46'0 0.0
2015-Apr-15 21:33N 35°38' E 139°46'0 0.0
2015-Apr-15 20:33N 35°38' E 139°46'0 0.0
2015-Apr-15 19:32N 35°38' E 139°46'0 0.0
2015-Apr-15 18:33N 35°38' E 139°46'0 0.0
2015-Apr-15 17:33N 35°38' E 139°46'0 0.0
2015-Apr-15 16:33N 35°38' E 139°46'0 0.0
2015-Apr-15 15:32N 35°38' E 139°46'2 1.8
2015-Apr-15 14:33N 35°37' E 139°47'1 1.3
2015-Apr-15 13:33N 35°35' E 139°47'0 0.0
2015-Apr-15 12:33N 35°35' E 139°47'0 0.0
2015-Apr-15 11:33N 35°35' E 139°47'1 0.7
2015-Apr-15 10:33N 35°36' E 139°47'0 0.2
2015-Apr-15 09:33N 35°36' E 139°47'1 0.9
2015-Apr-15 08:33N 35°37' E 139°46'0 0.4
2015-Apr-15 07:33N 35°37' E 139°46'2 2.4
2015-Apr-15 06:33N 35°35' E 139°48'4 3.6
2015-Apr-15 05:33N 35°38' E 139°45'0 0.0
2015-Apr-15 04:33N 35°38' E 139°45'0 0.0
2015-Apr-15 03:33N 35°38' E 139°45'0 0.0
2015-Apr-15 02:33N 35°38' E 139°45'0 0.0
2015-Apr-15 01:33N 35°38' E 139°45'0 0.0
2015-Apr-15 00:33N 35°38' E 139°45'0 0.0
2015-Apr-14 23:33N 35°38' E 139°45'2 2.0
2015-Apr-14 22:33N 35°36' E 139°46'3 3.5
2015-Apr-14 21:33N 35°34' E 139°49'3 3.2
2015-Apr-14 20:34N 35°37' E 139°48'1 1.1
2015-Apr-14 19:33N 35°37' E 139°49'3 2.7
2015-Apr-14 18:33N 35°37' E 139°46'1 1.3
2015-Apr-14 17:33N 35°38' E 139°45'0 0.0
2015-Apr-14 16:33N 35°38' E 139°45'0 0.0
2015-Apr-14 15:33N 35°38' E 139°45'0 0.0
2015-Apr-14 14:34N 35°38' E 139°45'0 0.0
2015-Apr-14 13:33N 35°38' E 139°45'0 0.0
2015-Apr-14 12:33N 35°38' E 139°45'0 0.0
2015-Apr-14 11:33N 35°38' E 139°45'0 0.0
2015-Apr-14 10:33N 35°38' E 139°45'0 0.0
2015-Apr-14 09:33N 35°38' E 139°45'0 0.0
2015-Apr-14 08:33N 35°38' E 139°45'0 0.0
2015-Apr-14 07:33N 35°38' E 139°45'0 0.0
2015-Apr-14 06:33N 35°38' E 139°45'0 0.0
2015-Apr-14 05:33N 35°38' E 139°45'0 0.0
2015-Apr-14 04:33N 35°38' E 139°45'0 0.0
2015-Apr-14 03:33N 35°38' E 139°45'0 0.0
2015-Apr-14 02:33N 35°38' E 139°45'0 0.0
2015-Apr-14 01:33N 35°38' E 139°45'0 0.0
2015-Apr-14 00:33N 35°38' E 139°45'0 0.0
2015-Apr-13 23:33N 35°38' E 139°45'0 0.0
2015-Apr-13 22:33N 35°38' E 139°45'0 0.0
2015-Apr-13 21:33N 35°38' E 139°45'0 0.0
2015-Apr-13 20:33N 35°38' E 139°45'0 0.0
2015-Apr-13 19:33N 35°38' E 139°45'0 0.0
2015-Apr-13 18:33N 35°38' E 139°45'0 0.0
2015-Apr-13 17:33N 35°38' E 139°45'0 0.0
2015-Apr-13 16:33N 35°38' E 139°45'0 0.0
2015-Apr-13 15:33N 35°38' E 139°45'0 0.0
2015-Apr-13 14:33N 35°38' E 139°45'0 0.0
2015-Apr-13 13:33N 35°38' E 139°45'0 0.0
2015-Apr-13 12:33N 35°38' E 139°45'0 0.0
2015-Apr-13 11:33N 35°38' E 139°45'0 0.0
2015-Apr-13 10:33N 35°38' E 139°45'0 0.0
2015-Apr-13 09:33N 35°38' E 139°45'0 0.0
2015-Apr-13 08:33N 35°38' E 139°45'0 0.0
2015-Apr-13 07:33N 35°38' E 139°45'2 2.0
2015-Apr-13 06:33N 35°36' E 139°46'2 2.0
2015-Apr-13 05:33N 35°38' E 139°45'0 0.0
2015-Apr-13 04:32N 35°38' E 139°45'2 2.3
2015-Apr-13 03:33N 35°36' E 139°47'0 0.3
2015-Apr-13 02:33N 35°36' E 139°47'2 2.2
2015-Apr-13 01:33N 35°38' E 139°45'0 0.0
2015-Apr-13 00:33N 35°38' E 139°45'2 1.9
2015-Apr-12 23:33N 35°36' E 139°46'4 3.8
2015-Apr-12 22:33N 35°34' E 139°50'5 5.4
2015-Apr-12 21:33N 35°38' E 139°46'0 0.0
2015-Apr-12 20:33N 35°38' E 139°46'0 0.0
2015-Apr-12 19:33N 35°38' E 139°46'0 0.0
2015-Apr-12 18:33N 35°38' E 139°46'0 0.0
2015-Apr-12 17:33N 35°38' E 139°46'0 0.0
2015-Apr-12 16:33N 35°38' E 139°46'0 0.0
2015-Apr-12 15:33N 35°38' E 139°46'0 0.0
2015-Apr-12 14:33N 35°38' E 139°46'0 0.0
2015-Apr-12 13:33N 35°38' E 139°46'0 0.0
2015-Apr-12 12:33N 35°38' E 139°46'0 0.0
2015-Apr-12 11:33N 35°38' E 139°46'0 0.0
2015-Apr-12 10:33N 35°38' E 139°46'3 2.5
2015-Apr-12 09:33N 35°36' E 139°47'3 2.5
2015-Apr-12 08:33N 35°38' E 139°45'0 0.0
2015-Apr-12 07:33N 35°38' E 139°45'0 0.0
2015-Apr-12 06:33N 35°38' E 139°45'0 0.0
2015-Apr-12 05:33N 35°38' E 139°45'0 0.0
2015-Apr-12 04:33N 35°38' E 139°45'0 0.0
2015-Apr-12 03:33N 35°38' E 139°45'0 0.0
2015-Apr-12 02:33N 35°38' E 139°45'0 0.0
2015-Apr-12 01:33N 35°38' E 139°45'0 0.0
2015-Apr-12 00:33N 35°38' E 139°45'0 0.0
2015-Apr-11 23:33N 35°38' E 139°45'2 2.0
2015-Apr-11 22:33N 35°37' E 139°47'3 3.1
2015-Apr-11 21:33N 35°34' E 139°49'4 3.9
2015-Apr-11 20:33N 35°37' E 139°46'1 1.4
2015-Apr-11 19:33N 35°38' E 139°45'0 0.0
2015-Apr-11 18:33N 35°38' E 139°45'0 0.0
2015-Apr-11 17:33N 35°38' E 139°45'0 0.0
2015-Apr-11 16:33N 35°38' E 139°45'0 0.0
2015-Apr-11 15:33N 35°38' E 139°45'0 0.0
2015-Apr-11 14:33N 35°38' E 139°45'0 0.0
2015-Apr-11 13:33N 35°38' E 139°45'0 0.0
2015-Apr-11 12:33N 35°38' E 139°45'0 0.0
2015-Apr-11 11:33N 35°38' E 139°45'0 0.0
2015-Apr-11 10:33N 35°38' E 139°45'0 0.0
2015-Apr-11 09:33N 35°38' E 139°45'0 0.0
2015-Apr-11 08:33N 35°38' E 139°45'0 0.0
2015-Apr-11 07:33N 35°38' E 139°45'0 0.0
2015-Apr-11 06:33N 35°38' E 139°45'0 0.0
2015-Apr-11 05:33N 35°38' E 139°45'0 0.0
2015-Apr-11 04:33N 35°38' E 139°45'0 0.0
2015-Apr-11 03:33N 35°38' E 139°45'0 0.0
2015-Apr-11 02:33N 35°38' E 139°45'0 0.0
2015-Apr-11 01:33N 35°38' E 139°45'3 2.5
2015-Apr-11 00:34N 35°36' E 139°46'3 2.8
2015-Apr-10 23:33N 35°34' E 139°49'3 2.7
2015-Apr-10 22:34N 35°36' E 139°47'1 0.8
2015-Apr-10 21:33N 35°35' E 139°48'3 3.4
2015-Apr-10 20:33N 35°38' E 139°45'0 0.0
2015-Apr-10 19:33N 35°38' E 139°45'0 0.0
2015-Apr-10 18:33N 35°38' E 139°45'0 0.0
2015-Apr-10 17:33N 35°38' E 139°45'0 0.0
2015-Apr-10 16:33N 35°38' E 139°45'0 0.0
2015-Apr-10 15:33N 35°38' E 139°45'0 0.0
2015-Apr-10 14:33N 35°38' E 139°45'0 0.0
2015-Apr-10 13:33N 35°38' E 139°45'0 0.0
2015-Apr-10 12:33N 35°38' E 139°45'0 0.0
2015-Apr-10 11:33N 35°38' E 139°45'0 0.0
2015-Apr-10 10:33N 35°38' E 139°45'0 0.0
2015-Apr-10 09:33N 35°38' E 139°45'0 0.0
2015-Apr-10 08:33N 35°38' E 139°45'0 0.0
2015-Apr-10 07:33N 35°38' E 139°45'0 0.0
2015-Apr-10 06:33N 35°38' E 139°45'0 0.0
2015-Apr-10 05:33N 35°38' E 139°45'0 0.0
2015-Apr-10 04:33N 35°38' E 139°45'0 0.0
2015-Apr-10 03:33N 35°38' E 139°45'0 0.0
2015-Apr-10 02:33N 35°38' E 139°45'0 0.0
2015-Apr-10 01:33N 35°38' E 139°45'0 0.0
2015-Apr-10 00:33N 35°38' E 139°45'0 0.0
2015-Apr-09 23:33N 35°38' E 139°45'0 0.0
2015-Apr-09 22:33N 35°38' E 139°45'0 0.0
2015-Apr-09 21:33N 35°38' E 139°45'0 0.0
2015-Apr-09 20:33N 35°38' E 139°45'0 0.0
2015-Apr-09 19:33N 35°38' E 139°45'0 0.0
2015-Apr-09 18:33N 35°38' E 139°45'0 0.0
2015-Apr-09 17:33N 35°38' E 139°45'0 0.0
2015-Apr-09 16:33N 35°38' E 139°45'0 0.0
2015-Apr-09 15:33N 35°38' E 139°45'0 0.0
2015-Apr-09 14:33N 35°38' E 139°45'0 0.0
2015-Apr-09 13:33N 35°38' E 139°45'  
Track history (hours):
 
Tides and Currents Weather Stations Pressure Air Temp Water Temp Dewpoint Dewpoint Depression Visibility Wind Speed Wind Dir Waves Ship Positions

Ohyamamaru

Last reported at 2015-Apr-19 13:33 UTC. Time now 2015-Apr-19 14:08 UTC.
Position N 35°38' E 139°45'.

Length 36 m; draft 4.4 m.

Type: Tug. MMSI: 431001114.

Date/timePositionNaut miles runAvg speedWind from/ knotsBaromVisibWave heightAir tempDewpointWater temp
2015-Apr-19 13:33N 35°38' E 139°45'0 0.0
2015-Apr-19 12:33N 35°38' E 139°45'0 0.0
2015-Apr-19 11:33N 35°38' E 139°45'0 0.0
2015-Apr-19 10:33N 35°38' E 139°45'0 0.0
2015-Apr-19 09:33N 35°38' E 139°45'0 0.0
2015-Apr-19 08:32N 35°38' E 139°45'0 0.0
2015-Apr-19 07:33N 35°38' E 139°45'0 0.0
2015-Apr-19 06:33N 35°38' E 139°45'0 0.0
2015-Apr-19 05:31N 35°38' E 139°45'0 0.0
2015-Apr-19 04:33N 35°38' E 139°45'0 0.0
2015-Apr-19 03:33N 35°38' E 139°45'0 0.0
2015-Apr-19 02:33N 35°38' E 139°45'0 0.0
2015-Apr-19 01:33N 35°38' E 139°45'0 0.0
2015-Apr-19 00:33N 35°38' E 139°45'0 0.0
2015-Apr-18 23:33N 35°38' E 139°45'0 0.0
2015-Apr-18 22:33N 35°38' E 139°45'0 0.0
2015-Apr-18 21:33N 35°38' E 139°45'0 0.0
2015-Apr-18 20:33N 35°38' E 139°45'0 0.0
2015-Apr-18 19:33N 35°38' E 139°45'0 0.0
2015-Apr-18 18:33N 35°38' E 139°45'0 0.0
2015-Apr-18 17:33N 35°38' E 139°45'0 0.0
2015-Apr-18 16:33N 35°38' E 139°45'0 0.0
2015-Apr-18 15:33N 35°38' E 139°45'0 0.0
2015-Apr-18 14:33N 35°38' E 139°45'0 0.0
2015-Apr-18 13:33N 35°38' E 139°45'0 0.0
2015-Apr-18 12:33N 35°38' E 139°45'0 0.0
2015-Apr-18 11:33N 35°38' E 139°45'0 0.0
2015-Apr-18 10:33N 35°38' E 139°45'0 0.0
2015-Apr-18 09:32N 35°38' E 139°45'0 0.0
2015-Apr-18 08:33N 35°38' E 139°45'0 0.0
2015-Apr-18 07:33N 35°38' E 139°45'0 0.0
2015-Apr-18 06:33N 35°38' E 139°45'0 0.0
2015-Apr-18 05:33N 35°38' E 139°45'0 0.0
2015-Apr-18 04:33N 35°38' E 139°45'0 0.0
2015-Apr-18 03:33N 35°38' E 139°45'0 0.0
2015-Apr-18 02:33N 35°38' E 139°45'0 0.0
2015-Apr-18 01:33N 35°38' E 139°45'0 0.0
2015-Apr-18 00:33N 35°38' E 139°45'0 0.0
2015-Apr-17 23:33N 35°38' E 139°45'0 0.0
2015-Apr-17 22:33N 35°38' E 139°45'0 0.0
2015-Apr-17 21:33N 35°38' E 139°45'0 0.0
2015-Apr-17 20:33N 35°38' E 139°45'2 1.9
2015-Apr-17 19:33N 35°36' E 139°46'2 1.9
2015-Apr-17 18:33N 35°38' E 139°45'0 0.0
2015-Apr-17 17:33N 35°38' E 139°45'0 0.0
2015-Apr-17 16:33N 35°38' E 139°45'0 0.0
2015-Apr-17 15:33N 35°38' E 139°45'0 0.0
2015-Apr-17 14:33N 35°38' E 139°45'0 0.0
2015-Apr-17 13:33N 35°38' E 139°45'0 0.0
2015-Apr-17 12:33N 35°38' E 139°45'0 0.0
2015-Apr-17 11:33N 35°38' E 139°45'0 0.0
2015-Apr-17 10:33N 35°38' E 139°45'2 2.2
2015-Apr-17 09:34N 35°36' E 139°47'2 2.2
2015-Apr-17 08:33N 35°38' E 139°46'0 0.0
2015-Apr-17 07:32N 35°38' E 139°46'0 0.0
2015-Apr-17 06:33N 35°38' E 139°46'0 0.0
2015-Apr-17 05:33N 35°38' E 139°46'0 0.0
2015-Apr-17 04:32N 35°38' E 139°46'7 6.7
2015-Apr-17 03:33N 35°32' E 139°48'3 3.1
2015-Apr-17 02:33N 35°35' E 139°48'4 3.6
2015-Apr-17 01:33N 35°38' E 139°46'0 0.0
2015-Apr-17 00:30N 35°38' E 139°46'0 0.0
2015-Apr-16 23:32N 35°38' E 139°46'0 0.0
2015-Apr-16 22:33N 35°38' E 139°46'0 0.0
2015-Apr-16 21:33N 35°38' E 139°46'0 0.0
2015-Apr-16 20:33N 35°38' E 139°46'0 0.0
2015-Apr-16 19:33N 35°38' E 139°46'0 0.0
2015-Apr-16 18:33N 35°38' E 139°46'0 0.0
2015-Apr-16 17:33N 35°38' E 139°46'0 0.0
2015-Apr-16 16:33N 35°38' E 139°46'0 0.0
2015-Apr-16 15:33N 35°38' E 139°46'0 0.0
2015-Apr-16 14:33N 35°38' E 139°46'0 0.0
2015-Apr-16 13:33N 35°38' E 139°46'0 0.0
2015-Apr-16 12:32N 35°38' E 139°46'0 0.0
2015-Apr-16 11:33N 35°38' E 139°46'0 0.0
2015-Apr-16 10:33N 35°38' E 139°46'0 0.0
2015-Apr-16 09:32N 35°38' E 139°46'0 0.0
2015-Apr-16 08:33N 35°38' E 139°46'0 0.0
2015-Apr-16 07:33N 35°38' E 139°46'0 0.0
2015-Apr-16 06:33N 35°38' E 139°46'0 0.0
2015-Apr-16 05:33N 35°38' E 139°46'0 0.0
2015-Apr-16 04:33N 35°38' E 139°46'0 0.0
2015-Apr-16 03:33N 35°38' E 139°46'0 0.0
2015-Apr-16 02:33N 35°38' E 139°46'0 0.0
2015-Apr-16 01:33N 35°38' E 139°46'0 0.0
2015-Apr-16 00:33N 35°38' E 139°46'0 0.0
2015-Apr-15 23:33N 35°38' E 139°46'0 0.0
2015-Apr-15 22:33N 35°38' E 139°46'0 0.0
2015-Apr-15 21:33N 35°38' E 139°46'0 0.0
2015-Apr-15 20:33N 35°38' E 139°46'0 0.0
2015-Apr-15 19:32N 35°38' E 139°46'0 0.0
2015-Apr-15 18:33N 35°38' E 139°46'0 0.0
2015-Apr-15 17:33N 35°38' E 139°46'0 0.0
2015-Apr-15 16:33N 35°38' E 139°46'0 0.0
2015-Apr-15 15:32N 35°38' E 139°46'2 1.8
2015-Apr-15 14:33N 35°37' E 139°47'1 1.3
2015-Apr-15 13:33N 35°35' E 139°47'0 0.0
2015-Apr-15 12:33N 35°35' E 139°47'0 0.0
2015-Apr-15 11:33N 35°35' E 139°47'1 0.7
2015-Apr-15 10:33N 35°36' E 139°47'0 0.2
2015-Apr-15 09:33N 35°36' E 139°47'1 0.9
2015-Apr-15 08:33N 35°37' E 139°46'0 0.4
2015-Apr-15 07:33N 35°37' E 139°46'2 2.4
2015-Apr-15 06:33N 35°35' E 139°48'4 3.6
2015-Apr-15 05:33N 35°38' E 139°45'0 0.0
2015-Apr-15 04:33N 35°38' E 139°45'0 0.0
2015-Apr-15 03:33N 35°38' E 139°45'0 0.0
2015-Apr-15 02:33N 35°38' E 139°45'0 0.0
2015-Apr-15 01:33N 35°38' E 139°45'0 0.0
2015-Apr-15 00:33N 35°38' E 139°45'0 0.0
2015-Apr-14 23:33N 35°38' E 139°45'2 2.0
2015-Apr-14 22:33N 35°36' E 139°46'3 3.5
2015-Apr-14 21:33N 35°34' E 139°49'3 3.2
2015-Apr-14 20:34N 35°37' E 139°48'1 1.1
2015-Apr-14 19:33N 35°37' E 139°49'3 2.7
2015-Apr-14 18:33N 35°37' E 139°46'1 1.3
2015-Apr-14 17:33N 35°38' E 139°45'0 0.0
2015-Apr-14 16:33N 35°38' E 139°45'0 0.0
2015-Apr-14 15:33N 35°38' E 139°45'0 0.0
2015-Apr-14 14:34N 35°38' E 139°45'0 0.0
2015-Apr-14 13:33N 35°38' E 139°45'0 0.0
2015-Apr-14 12:33N 35°38' E 139°45'0 0.0
2015-Apr-14 11:33N 35°38' E 139°45'0 0.0
2015-Apr-14 10:33N 35°38' E 139°45'0 0.0
2015-Apr-14 09:33N 35°38' E 139°45'0 0.0
2015-Apr-14 08:33N 35°38' E 139°45'0 0.0
2015-Apr-14 07:33N 35°38' E 139°45'0 0.0
2015-Apr-14 06:33N 35°38' E 139°45'0 0.0
2015-Apr-14 05:33N 35°38' E 139°45'0 0.0
2015-Apr-14 04:33N 35°38' E 139°45'0 0.0
2015-Apr-14 03:33N 35°38' E 139°45'0 0.0
2015-Apr-14 02:33N 35°38' E 139°45'0 0.0
2015-Apr-14 01:33N 35°38' E 139°45'0 0.0
2015-Apr-14 00:33N 35°38' E 139°45'0 0.0
2015-Apr-13 23:33N 35°38' E 139°45'0 0.0
2015-Apr-13 22:33N 35°38' E 139°45'0 0.0
2015-Apr-13 21:33N 35°38' E 139°45'0 0.0
2015-Apr-13 20:33N 35°38' E 139°45'0 0.0
2015-Apr-13 19:33N 35°38' E 139°45'0 0.0
2015-Apr-13 18:33N 35°38' E 139°45'0 0.0
2015-Apr-13 17:33N 35°38' E 139°45'0 0.0
2015-Apr-13 16:33N 35°38' E 139°45'0 0.0
2015-Apr-13 15:33N 35°38' E 139°45'0 0.0
2015-Apr-13 14:33N 35°38' E 139°45'0 0.0
2015-Apr-13 13:33N 35°38' E 139°45'0 0.0
2015-Apr-13 12:33N 35°38' E 139°45'0 0.0
2015-Apr-13 11:33N 35°38' E 139°45'0 0.0
2015-Apr-13 10:33N 35°38' E 139°45'0 0.0
2015-Apr-13 09:33N 35°38' E 139°45'0 0.0
2015-Apr-13 08:33N 35°38' E 139°45'0 0.0
2015-Apr-13 07:33N 35°38' E 139°45'2 2.0
2015-Apr-13 06:33N 35°36' E 139°46'2 2.0
2015-Apr-13 05:33N 35°38' E 139°45'0 0.0
2015-Apr-13 04:32N 35°38' E 139°45'2 2.3
2015-Apr-13 03:33N 35°36' E 139°47'0 0.3
2015-Apr-13 02:33N 35°36' E 139°47'2 2.2
2015-Apr-13 01:33N 35°38' E 139°45'0 0.0
2015-Apr-13 00:33N 35°38' E 139°45'2 1.9
2015-Apr-12 23:33N 35°36' E 139°46'4 3.8
2015-Apr-12 22:33N 35°34' E 139°50'5 5.4
2015-Apr-12 21:33N 35°38' E 139°46'0 0.0
2015-Apr-12 20:33N 35°38' E 139°46'0 0.0
2015-Apr-12 19:33N 35°38' E 139°46'0 0.0
2015-Apr-12 18:33N 35°38' E 139°46'0 0.0
2015-Apr-12 17:33N 35°38' E 139°46'0 0.0
2015-Apr-12 16:33N 35°38' E 139°46'0 0.0
2015-Apr-12 15:33N 35°38' E 139°46'0 0.0
2015-Apr-12 14:33N 35°38' E 139°46'0 0.0
2015-Apr-12 13:33N 35°38' E 139°46'0 0.0
2015-Apr-12 12:33N 35°38' E 139°46'0 0.0
2015-Apr-12 11:33N 35°38' E 139°46'0 0.0
2015-Apr-12 10:33N 35°38' E 139°46'3 2.5
2015-Apr-12 09:33N 35°36' E 139°47'3 2.5
2015-Apr-12 08:33N 35°38' E 139°45'0 0.0
2015-Apr-12 07:33N 35°38' E 139°45'0 0.0
2015-Apr-12 06:33N 35°38' E 139°45'0 0.0
2015-Apr-12 05:33N 35°38' E 139°45'0 0.0
2015-Apr-12 04:33N 35°38' E 139°45'0 0.0
2015-Apr-12 03:33N 35°38' E 139°45'0 0.0
2015-Apr-12 02:33N 35°38' E 139°45'0 0.0
2015-Apr-12 01:33N 35°38' E 139°45'0 0.0
2015-Apr-12 00:33N 35°38' E 139°45'0 0.0
2015-Apr-11 23:33N 35°38' E 139°45'2 2.0
2015-Apr-11 22:33N 35°37' E 139°47'3 3.1
2015-Apr-11 21:33N 35°34' E 139°49'4 3.9
2015-Apr-11 20:33N 35°37' E 139°46'1 1.4
2015-Apr-11 19:33N 35°38' E 139°45'0 0.0
2015-Apr-11 18:33N 35°38' E 139°45'0 0.0
2015-Apr-11 17:33N 35°38' E 139°45'0 0.0
2015-Apr-11 16:33N 35°38' E 139°45'0 0.0
2015-Apr-11 15:33N 35°38' E 139°45'0 0.0
2015-Apr-11 14:33N 35°38' E 139°45'0 0.0
2015-Apr-11 13:33N 35°38' E 139°45'0 0.0
2015-Apr-11 12:33N 35°38' E 139°45'0 0.0
2015-Apr-11 11:33N 35°38' E 139°45'0 0.0
2015-Apr-11 10:33N 35°38' E 139°45'0 0.0
2015-Apr-11 09:33N 35°38' E 139°45'0 0.0
2015-Apr-11 08:33N 35°38' E 139°45'0 0.0
2015-Apr-11 07:33N 35°38' E 139°45'0 0.0
2015-Apr-11 06:33N 35°38' E 139°45'0 0.0
2015-Apr-11 05:33N 35°38' E 139°45'0 0.0
2015-Apr-11 04:33N 35°38' E 139°45'0 0.0
2015-Apr-11 03:33N 35°38' E 139°45'0 0.0
2015-Apr-11 02:33N 35°38' E 139°45'0 0.0
2015-Apr-11 01:33N 35°38' E 139°45'3 2.5
2015-Apr-11 00:34N 35°36' E 139°46'3 2.8
2015-Apr-10 23:33N 35°34' E 139°49'3 2.7
2015-Apr-10 22:34N 35°36' E 139°47'1 0.8
2015-Apr-10 21:33N 35°35' E 139°48'3 3.4
2015-Apr-10 20:33N 35°38' E 139°45'0 0.0
2015-Apr-10 19:33N 35°38' E 139°45'0 0.0
2015-Apr-10 18:33N 35°38' E 139°45'0 0.0
2015-Apr-10 17:33N 35°38' E 139°45'0 0.0
2015-Apr-10 16:33N 35°38' E 139°45'0 0.0
2015-Apr-10 15:33N 35°38' E 139°45'0 0.0
2015-Apr-10 14:33N 35°38' E 139°45'0 0.0
2015-Apr-10 13:33N 35°38' E 139°45'0 0.0
2015-Apr-10 12:33N 35°38' E 139°45'0 0.0
2015-Apr-10 11:33N 35°38' E 139°45'0 0.0
2015-Apr-10 10:33N 35°38' E 139°45'0 0.0
2015-Apr-10 09:33N 35°38' E 139°45'0 0.0
2015-Apr-10 08:33N 35°38' E 139°45'0 0.0
2015-Apr-10 07:33N 35°38' E 139°45'0 0.0
2015-Apr-10 06:33N 35°38' E 139°45'0 0.0
2015-Apr-10 05:33N 35°38' E 139°45'0 0.0
2015-Apr-10 04:33N 35°38' E 139°45'0 0.0
2015-Apr-10 03:33N 35°38' E 139°45'0 0.0
2015-Apr-10 02:33N 35°38' E 139°45'0 0.0
2015-Apr-10 01:33N 35°38' E 139°45'0 0.0
2015-Apr-10 00:33N 35°38' E 139°45'0 0.0
2015-Apr-09 23:33N 35°38' E 139°45'0 0.0
2015-Apr-09 22:33N 35°38' E 139°45'0 0.0
2015-Apr-09 21:33N 35°38' E 139°45'0 0.0
2015-Apr-09 20:33N 35°38' E 139°45'0 0.0
2015-Apr-09 19:33N 35°38' E 139°45'0 0.0
2015-Apr-09 18:33N 35°38' E 139°45'0 0.0
2015-Apr-09 17:33N 35°38' E 139°45'0 0.0
2015-Apr-09 16:33N 35°38' E 139°45'0 0.0
2015-Apr-09 15:33N 35°38' E 139°45'0 0.0
2015-Apr-09 14:33N 35°38' E 139°45'0 0.0
2015-Apr-09 13:33N 35°38' E 139°45'  

Dump ship's entire track history